createdAt,value
2023-02-06T00:02:17.741Z,15.8
2023-02-06T00:07:56.362Z,18.1
2023-02-06T00:13:34.155Z,19.1
2023-02-06T00:19:13.383Z,18
2023-02-06T00:24:51.534Z,17.8
2023-02-06T00:30:29.173Z,19
2023-02-06T00:36:08.483Z,18.1
2023-02-06T00:41:14.256Z,17.4
2023-02-06T00:46:37.290Z,18.8
2023-02-06T00:52:15.706Z,18.6
2023-02-06T00:57:52.896Z,17.3
2023-02-06T01:03:31.144Z,18.4
2023-02-06T01:09:10.841Z,18.8
2023-02-06T01:14:47.808Z,17.3
2023-02-06T01:20:25.961Z,18.4
2023-02-06T01:26:04.547Z,19.1
2023-02-06T01:31:41.846Z,17.5
2023-02-06T01:37:25.261Z,18.3
2023-02-06T01:43:04.043Z,19.1
2023-02-06T01:48:41.633Z,17.6
2023-02-06T01:54:19.195Z,18.1
2023-02-06T01:59:57.454Z,17.5
2023-02-06T02:05:35.807Z,17.1
2023-02-06T02:11:13.601Z,18.6
2023-02-06T02:16:51.779Z,19.1
2023-02-06T02:22:29.135Z,17.4
2023-02-06T02:28:08.712Z,18.5
2023-02-06T02:33:47.483Z,19
2023-02-06T02:39:24.680Z,17.4
2023-02-06T02:45:02.122Z,18.4
2023-02-06T02:50:41.238Z,19.1
2023-02-06T02:56:18.471Z,17.4
2023-02-06T03:01:56.472Z,18.4
2023-02-06T03:07:35.601Z,19
2023-02-06T03:13:12.742Z,17.4
2023-02-06T03:18:50.152Z,18.3
2023-02-06T03:24:28.682Z,18.9
2023-02-06T03:29:51.247Z,17.7
2023-02-06T03:35:29.821Z,17.9
2023-02-06T03:40:52.430Z,17.9
2023-02-06T03:46:30.817Z,16.6
2023-02-06T03:52:08.907Z,18.3
2023-02-06T03:57:48.072Z,18.9
2023-02-06T04:03:27.946Z,17.9
2023-02-06T04:08:50.270Z,17.7
2023-02-06T04:14:28.947Z,18.6
2023-02-06T04:20:15.255Z,18.3
2023-02-06T04:25:39.057Z,17.4
2023-02-06T04:31:17.712Z,18.6
2023-02-06T04:36:55.572Z,18.6
2023-02-06T04:42:33.084Z,17.3
2023-02-06T04:48:11.549Z,18.4
2023-02-06T04:53:48.510Z,19
2023-02-06T04:59:26.331Z,17.4
2023-02-06T05:04:49.390Z,18.2
2023-02-06T05:10:11.691Z,18.9
2023-02-06T05:15:50.717Z,17.9
2023-02-06T05:21:29.390Z,17.6
2023-02-06T05:27:07.231Z,18.4
2023-02-06T05:32:30.700Z,16
2023-02-06T05:38:09.169Z,18
2023-02-06T05:54:36.402Z,17.2
2023-02-06T05:59:58.280Z,18.3
2023-02-06T06:05:20.527Z,18.8
2023-02-06T06:10:43.889Z,17.4
2023-02-06T06:16:23.794Z,18.1
2023-02-06T06:22:02.264Z,18.8
2023-02-06T06:27:39.141Z,17.9
2023-02-06T06:33:18.345Z,17.6
2023-02-06T06:38:57.060Z,18.6
2023-02-06T06:44:34.379Z,18.4
2023-02-06T06:50:13.248Z,17.2
2023-02-06T06:56:01.271Z,18.4
2023-02-06T07:01:39.496Z,18.3
2023-02-06T07:07:02.736Z,16.8
2023-02-06T07:12:40.730Z,18.3
2023-02-06T07:18:19.356Z,19.1
2023-02-06T07:23:57.412Z,17.3
2023-02-06T07:29:35.683Z,18.3
2023-02-06T07:35:14.366Z,19
2023-02-06T07:40:44.891Z,17.4
2023-02-06T07:46:08.783Z,18.2
2023-02-06T07:51:47.930Z,18.9
2023-02-06T07:57:25.298Z,17.6
2023-02-06T08:03:03.841Z,18.1
2023-02-06T08:08:43.048Z,18.9
2023-02-06T08:14:20.883Z,17.8
2023-02-06T08:19:59.768Z,17.9
2023-02-06T08:25:38.478Z,18.8
2023-02-06T08:31:16.882Z,17.7
2023-02-06T08:36:39.692Z,17.9
2023-02-06T08:42:18.695Z,18.8
2023-02-06T08:48:01.026Z,16.4
2023-02-06T08:53:40.777Z,18.4
2023-02-06T08:59:19.578Z,18.8
2023-02-06T09:04:42.525Z,17.1
2023-02-06T09:10:06.590Z,18.6
2023-02-06T09:15:50.619Z,18.4
2023-02-06T09:21:28.914Z,17.5
2023-02-06T09:27:18.611Z,18.8
2023-02-06T09:32:57.994Z,18.1
2023-02-06T09:38:36.419Z,17.6
2023-02-06T09:44:13.829Z,18.8
2023-02-06T09:49:52.981Z,17.8
2023-02-06T09:55:30.924Z,17.8
2023-02-06T10:01:09.381Z,18.9
2023-02-06T10:06:48.736Z,17.5
2023-02-06T10:12:12.947Z,18.1
2023-02-06T10:17:53.092Z,19.1
2023-02-06T10:23:31.782Z,17.4
2023-02-06T10:29:10.009Z,18.3
2023-02-06T10:34:57.939Z,17.4
2023-02-06T10:40:20.926Z,18.1
2023-02-06T10:45:54.191Z,19
2023-02-06T10:51:17.688Z,17.6
2023-02-06T10:56:57.529Z,17.9
2023-02-06T11:03:05.340Z,19
2023-02-06T11:08:45.010Z,17.3
2023-02-06T11:14:25.103Z,18.1
2023-02-06T11:19:48.046Z,19.1
2023-02-06T11:25:23.454Z,17.2
2023-02-06T11:31:05.259Z,18.3
2023-02-06T11:36:57.615Z,19.1
2023-02-06T11:48:02.808Z,18.5
2023-02-06T11:53:41.042Z,18.6
2023-02-06T11:59:19.580Z,17.3
2023-02-06T12:04:59.071Z,18.8
2023-02-06T12:10:37.716Z,18.1
2023-02-06T12:16:30.472Z,17.8
2023-02-06T12:22:09.462Z,18.2
2023-02-06T12:27:48.467Z,18
2023-02-06T12:33:27.744Z,19.1
2023-02-06T12:38:50.741Z,17.8
2023-02-06T12:44:28.551Z,18.4
2023-02-06T12:50:09.707Z,19.3
2023-02-06T12:55:48.434Z,17.3
2023-02-06T13:01:49.142Z,19
2023-02-06T13:07:26.841Z,18.1
2023-02-06T13:13:11.671Z,18.6
2023-02-06T13:20:02.975Z,19.1
2023-02-06T13:25:40.375Z,18.1
2023-02-06T13:31:19.716Z,19.4
2023-02-06T13:36:56.710Z,17.5
2023-02-06T13:42:20.540Z,18.6
2023-02-06T13:47:57.769Z,18.8
2023-02-06T13:53:18.375Z,17.1
2023-02-06T13:58:56.904Z,18.9
2023-02-06T14:04:35.352Z,18.6
2023-02-06T14:09:57.541Z,17.7
2023-02-06T14:15:33.339Z,18.9
2023-02-06T14:21:11.885Z,17.4
2023-02-06T14:26:50.299Z,18.9
2023-02-06T14:32:27.790Z,17.9
2023-02-06T14:37:51.270Z,18
2023-02-06T14:43:27.978Z,19.2
2023-02-06T14:49:26.045Z,17.6
2023-02-06T14:54:51.520Z,18.6
2023-02-06T15:00:30.583Z,18.9
2023-02-06T15:05:54.083Z,17.3
2023-02-06T15:11:31.054Z,18.9
2023-02-06T15:17:08.237Z,18.3
2023-02-06T15:22:14.533Z,17.1
2023-02-06T15:28:06.058Z,16.6
2023-02-06T15:33:27.465Z,16.3
2023-02-06T15:38:49.033Z,16.1
2023-02-06T15:44:29.882Z,16.2
2023-02-06T15:49:53.030Z,17.1
2023-02-06T15:55:29.772Z,17.6
2023-02-06T16:01:07.510Z,17.9
2023-02-06T16:06:29.420Z,17.7
2023-02-06T16:11:51.135Z,17.2
2023-02-06T16:17:13.294Z,17.3
2023-02-06T16:22:50.447Z,17.1
2023-02-06T16:28:27.792Z,17.2
2023-02-06T16:34:05.716Z,17.3
2023-02-06T16:39:56.300Z,17.2
2023-02-06T16:45:47.345Z,17.1
2023-02-06T16:51:24.275Z,17.9
2023-02-06T16:56:47.161Z,23.8
2023-02-06T17:02:38.821Z,24.3
2023-02-06T17:08:15.978Z,23.7
2023-02-06T17:13:37.275Z,22.7
2023-02-06T17:19:02.683Z,22.2
2023-02-06T17:24:25.008Z,21.7
2023-02-06T17:29:47.637Z,21.3
2023-02-06T17:35:24.907Z,20.9
2023-02-06T17:40:15.910Z,20.5
2023-02-06T17:45:21.665Z,20.4
2023-02-06T17:50:43.277Z,19.8
2023-02-06T17:56:05.668Z,19.8
2023-02-06T18:01:27.138Z,19.8
2023-02-06T18:07:07.021Z,19.7
2023-02-06T18:12:28.849Z,19.4
2023-02-06T18:18:06.223Z,19
2023-02-06T18:23:46.412Z,18.9
2023-02-06T18:29:23.448Z,17.9
2023-02-06T18:34:55.266Z,18
2023-02-06T18:40:17.015Z,17.9
2023-02-06T18:45:39.018Z,17.5
2023-02-06T18:51:16.121Z,17.3
2023-02-06T18:56:52.898Z,17.1
2023-02-06T19:02:15.195Z,16.9
2023-02-06T19:07:51.320Z,16.6
2023-02-06T19:13:18.602Z,16.6
2023-02-06T19:19:10.868Z,16.6
2023-02-06T19:24:48.411Z,16.6
2023-02-06T19:30:27.240Z,16.6
2023-02-06T19:35:49.669Z,16.4
2023-02-06T19:41:12.388Z,16.4
2023-02-06T19:46:49.340Z,16.2
2023-02-06T19:52:28.663Z,16.1
2023-02-06T19:58:06.603Z,15.4
2023-02-06T20:03:43.916Z,15.7
2023-02-06T20:09:20.858Z,15.7
2023-02-06T20:14:58.232Z,15.7
2023-02-06T20:20:20.628Z,15.7
2023-02-06T20:25:58.479Z,15.6
2023-02-06T20:31:21.229Z,15.4
2023-02-06T20:36:43.889Z,15.4
2023-02-06T20:42:05.137Z,15.3
2023-02-06T20:47:27.781Z,15.2
2023-02-06T20:53:04.689Z,15.1
2023-02-06T20:58:26.986Z,15.1
2023-02-06T21:03:48.390Z,15
2023-02-06T21:09:25.611Z,14.9
2023-02-06T21:15:02.423Z,14.9
2023-02-06T21:20:55.001Z,14.8
2023-02-06T21:26:34.748Z,14.7
2023-02-06T21:32:11.299Z,14.6
2023-02-06T21:37:35.069Z,14.6
2023-02-06T21:43:12.277Z,14.6
2023-02-06T21:48:49.391Z,14.5
2023-02-06T21:54:26.603Z,14.4
2023-02-06T22:00:03.709Z,14.3
2023-02-06T22:05:41.168Z,14.3
2023-02-06T22:11:20.902Z,15.6
2023-02-06T22:16:58.400Z,18.1
2023-02-06T22:22:36.397Z,17.7
2023-02-06T22:28:15.626Z,17.3
2023-02-06T22:33:53.063Z,16.9
2023-02-06T22:39:31.107Z,18.4
2023-02-06T22:45:08.727Z,18.8
2023-02-06T22:50:30.494Z,17.8
2023-02-06T22:56:07.297Z,17.3
2023-02-06T23:01:45.088Z,16.8
2023-02-06T23:07:22.544Z,19
2023-02-06T23:12:44.735Z,18.6
2023-02-06T23:18:22.149Z,17.6
2023-02-06T23:29:20.362Z,17.6
2023-02-06T23:34:41.596Z,19.3
2023-02-06T23:40:02.813Z,18.1
2023-02-06T23:45:40.224Z,17.4
2023-02-06T23:51:17.154Z,18.9
2023-02-06T23:56:53.897Z,19
